createdAt,value
2019-05-10T00:03:08.107Z,12.40
2019-05-10T00:08:44.810Z,12.46
2019-05-10T00:14:25.869Z,12.32
2019-05-10T00:19:47.543Z,12.35
2019-05-10T00:25:09.598Z,12.40
2019-05-10T00:30:31.444Z,12.47
2019-05-10T00:35:53.688Z,12.58
2019-05-10T00:41:15.289Z,12.46
2019-05-10T00:46:37.629Z,12.44
2019-05-10T00:51:59.744Z,12.44
2019-05-10T00:57:21.387Z,12.49
2019-05-10T01:02:42.923Z,12.48
2019-05-10T01:08:04.675Z,12.52
2019-05-10T01:13:26.418Z,12.53
2019-05-10T01:18:47.592Z,12.56
2019-05-10T01:24:09.201Z,12.54
2019-05-10T01:29:30.792Z,12.54
2019-05-10T01:34:52.380Z,12.50
2019-05-10T01:40:14.414Z,12.46
2019-05-10T01:45:35.760Z,12.51
2019-05-10T01:50:57.511Z,12.52
2019-05-10T01:56:19.092Z,12.45
2019-05-10T02:01:40.843Z,12.49
2019-05-10T02:07:02.630Z,12.56
2019-05-10T02:12:25.758Z,12.51
2019-05-10T02:17:47.569Z,12.46
2019-05-10T02:23:09.296Z,12.57
2019-05-10T02:28:31.273Z,12.49
2019-05-10T02:33:53.439Z,12.55
2019-05-10T02:39:14.905Z,12.56
2019-05-10T02:44:36.876Z,12.57
2019-05-10T02:49:59.333Z,12.57
2019-05-10T02:55:22.015Z,12.33
2019-05-10T03:00:45.828Z,12.32
2019-05-10T03:06:07.734Z,12.19
2019-05-10T03:11:32.669Z,12.20
2019-05-10T03:16:54.108Z,12.12
2019-05-10T03:22:18.025Z,12.03
2019-05-10T03:27:39.805Z,12.01
2019-05-10T03:33:01.659Z,11.96
2019-05-10T03:38:23.605Z,12.09
2019-05-10T03:43:45.389Z,12.08
2019-05-10T03:49:07.107Z,12.14
2019-05-10T03:54:28.939Z,12.12
2019-05-10T03:59:50.347Z,12.16
2019-05-10T04:05:12.628Z,12.14
2019-05-10T04:10:34.073Z,12.04
2019-05-10T04:15:55.693Z,11.97
2019-05-10T04:21:17.459Z,11.66
2019-05-10T04:26:39.505Z,11.77
2019-05-10T04:32:01.195Z,11.84
2019-05-10T04:37:22.960Z,11.88
2019-05-10T04:42:44.798Z,11.95
2019-05-10T04:48:06.537Z,12.00
2019-05-10T04:53:28.381Z,11.92
2019-05-10T04:58:49.741Z,11.80
2019-05-10T05:04:11.206Z,11.82
2019-05-10T05:09:32.826Z,11.85
2019-05-10T05:14:54.359Z,11.82
2019-05-10T05:20:16.126Z,11.85
2019-05-10T05:25:40.242Z,11.89
2019-05-10T05:31:01.502Z,12.11
2019-05-10T05:36:23.280Z,12.38
2019-05-10T05:41:48.905Z,12.62
2019-05-10T05:47:08.514Z,12.77
2019-05-10T05:52:30.416Z,13.06
2019-05-10T05:57:52.189Z,13.26
2019-05-10T06:03:19.265Z,13.13
2019-05-10T06:08:37.199Z,13.34
2019-05-10T06:14:03.925Z,13.30
2019-05-10T06:19:29.380Z,13.62
2019-05-10T06:24:46.651Z,13.66
2019-05-10T06:30:09.910Z,13.89
2019-05-10T06:35:31.848Z,14.11
2019-05-10T06:40:53.379Z,14.06
2019-05-10T06:46:15.170Z,14.34
2019-05-10T06:51:36.778Z,14.35
2019-05-10T06:56:58.447Z,14.28
2019-05-10T07:02:26.002Z,14.29
2019-05-10T07:07:45.402Z,14.43
2019-05-10T07:13:07.412Z,14.72
2019-05-10T07:18:29.408Z,14.98
2019-05-10T07:23:50.940Z,14.92
2019-05-10T07:29:27.910Z,14.97
2019-05-10T07:34:36.192Z,15.26
2019-05-10T07:39:57.361Z,15.25
2019-05-10T07:45:25.647Z,15.42
2019-05-10T07:50:49.688Z,15.56
2019-05-10T07:56:08.006Z,15.61
2019-05-10T08:01:32.704Z,15.92
2019-05-10T08:06:53.395Z,15.89
2019-05-10T08:12:15.249Z,15.87
2019-05-10T08:17:43.134Z,15.87
2019-05-10T08:23:02.825Z,15.49
2019-05-10T08:28:27.872Z,15.48
2019-05-10T08:33:53.670Z,15.32
2019-05-10T08:39:13.986Z,15.23
2019-05-10T08:44:35.842Z,15.57
2019-05-10T08:50:11.798Z,16.72
2019-05-10T08:55:22.628Z,16.91
2019-05-10T09:00:54.277Z,17.14
2019-05-10T09:06:11.885Z,17.56
2019-05-10T09:11:32.749Z,17.56
2019-05-10T09:17:00.776Z,17.71
2019-05-10T09:22:26.042Z,17.42
2019-05-10T09:28:04.503Z,16.61
2019-05-10T09:33:22.456Z,15.64
2019-05-10T09:38:46.375Z,14.42
2019-05-10T09:44:08.185Z,14.15
2019-05-10T09:49:30.061Z,14.21
2019-05-10T09:54:51.136Z,13.88
2019-05-10T10:00:17.459Z,14.68
2019-05-10T10:05:40.305Z,15.72
2019-05-10T10:11:13.302Z,16.18
2019-05-10T10:16:28.070Z,15.73
2019-05-10T10:21:49.505Z,15.57
2019-05-10T10:27:11.070Z,15.28
2019-05-10T10:32:34.871Z,14.68
2019-05-10T10:37:57.541Z,14.22
2019-05-10T10:43:19.977Z,12.62
2019-05-10T10:48:43.665Z,12.15
2019-05-10T10:54:07.411Z,11.68
2019-05-10T10:59:29.430Z,11.92
2019-05-10T11:04:50.755Z,12.24
2019-05-10T11:10:18.994Z,12.11
2019-05-10T11:15:36.773Z,12.11
2019-05-10T11:21:01.761Z,12.60
2019-05-10T11:26:26.768Z,13.37
2019-05-10T11:31:50.174Z,13.87
2019-05-10T11:37:10.647Z,14.14
2019-05-10T11:42:32.509Z,14.24
2019-05-10T11:47:59.089Z,14.21
2019-05-10T11:53:17.976Z,14.72
2019-05-10T11:58:45.964Z,14.85
2019-05-10T12:04:05.153Z,14.98
2019-05-10T12:09:27.068Z,15.32
2019-05-10T12:14:48.913Z,15.21
2019-05-10T12:20:12.529Z,14.80
2019-05-10T12:26:13.469Z,14.84
2019-05-10T12:30:58.334Z,14.90
2019-05-10T12:36:26.066Z,14.91
2019-05-10T12:41:47.805Z,15.00
2019-05-10T12:47:07.856Z,15.32
2019-05-10T12:52:31.933Z,15.48
2019-05-10T12:57:53.525Z,15.52
2019-05-10T13:03:18.856Z,15.73
2019-05-10T13:08:38.682Z,15.81
2019-05-10T13:14:01.071Z,15.88
2019-05-10T13:19:24.470Z,15.82
2019-05-10T13:24:46.309Z,15.97
2019-05-10T13:30:09.551Z,16.08
2019-05-10T13:35:31.316Z,16.04
2019-05-10T13:40:53.243Z,16.08
2019-05-10T13:46:14.712Z,16.19
2019-05-10T13:51:36.371Z,16.42
2019-05-10T13:56:58.104Z,16.36
2019-05-10T14:02:23.018Z,16.49
2019-05-10T14:07:50.965Z,16.54
2019-05-10T14:13:07.424Z,16.96
2019-05-10T14:18:29.354Z,17.76
2019-05-10T14:23:51.248Z,17.76
2019-05-10T14:29:12.908Z,18.41
2019-05-10T14:34:37.921Z,18.01
2019-05-10T14:39:58.502Z,17.50
2019-05-10T14:45:20.696Z,17.50
2019-05-10T14:50:46.214Z,17.82
2019-05-10T14:56:08.033Z,16.91
2019-05-10T15:01:30.234Z,16.54
2019-05-10T15:06:51.853Z,16.42
2019-05-10T15:12:16.289Z,16.91
2019-05-10T15:17:37.286Z,16.91
2019-05-10T15:22:59.458Z,16.68
2019-05-10T15:28:21.065Z,17.19
2019-05-10T15:33:42.865Z,17.05
2019-05-10T15:39:06.019Z,17.42
2019-05-10T15:44:31.205Z,18.32
2019-05-10T15:49:54.657Z,17.51
2019-05-10T15:55:17.072Z,16.51
2019-05-10T16:00:41.545Z,16.13
2019-05-10T16:06:02.935Z,15.98
2019-05-10T16:11:24.454Z,15.95
2019-05-10T16:16:46.321Z,15.83
2019-05-10T16:22:07.839Z,15.81
2019-05-10T16:27:33.959Z,15.76
2019-05-10T16:32:53.619Z,15.81
2019-05-10T16:38:15.812Z,15.87
2019-05-10T16:43:38.251Z,15.82
2019-05-10T16:49:00.076Z,15.78
2019-05-10T16:54:25.517Z,15.73
2019-05-10T16:59:46.125Z,15.48
2019-05-10T17:05:09.666Z,15.37
2019-05-10T17:10:32.914Z,15.34
2019-05-10T17:15:55.617Z,15.37
2019-05-10T17:21:18.867Z,15.01
2019-05-10T17:26:41.082Z,14.89
2019-05-10T17:32:04.592Z,14.71
2019-05-10T17:37:29.861Z,14.63
2019-05-10T17:42:51.606Z,14.44
2019-05-10T17:48:13.864Z,14.29
2019-05-10T17:53:36.554Z,14.25
2019-05-10T17:58:57.992Z,14.21
2019-05-10T18:04:20.402Z,14.13
2019-05-10T18:09:42.369Z,14.18
2019-05-10T18:15:05.213Z,14.35
2019-05-10T18:20:27.138Z,14.29
2019-05-10T18:25:52.514Z,14.23
2019-05-10T18:31:13.102Z,14.17
2019-05-10T18:36:51.042Z,14.12
2019-05-10T18:42:10.023Z,14.14
2019-05-10T18:47:32.783Z,14.18
2019-05-10T18:52:54.795Z,14.13
2019-05-10T18:58:17.245Z,14.18
2019-05-10T19:03:39.425Z,14.21
2019-05-10T19:09:01.454Z,14.17
2019-05-10T19:14:29.013Z,14.26
2019-05-10T19:19:59.271Z,14.44
2019-05-10T19:25:24.163Z,14.59
2019-05-10T19:31:03.800Z,14.68
2019-05-10T19:36:14.747Z,14.72
2019-05-10T19:41:36.445Z,14.67
2019-05-10T19:46:58.396Z,14.65
2019-05-10T19:52:25.616Z,14.56
2019-05-10T19:57:44.224Z,14.56
2019-05-10T20:03:06.337Z,14.54
2019-05-10T20:08:28.119Z,14.45
2019-05-10T20:13:50.401Z,14.47
2019-05-10T20:19:12.809Z,14.46
2019-05-10T20:24:42.142Z,14.43
2019-05-10T20:30:04.405Z,14.30
2019-05-10T20:35:26.142Z,14.06
2019-05-10T20:40:48.097Z,13.86
2019-05-10T20:46:11.577Z,13.75
2019-05-10T20:51:34.123Z,13.52
2019-05-10T20:56:56.100Z,13.45
2019-05-10T21:02:20.177Z,13.38
2019-05-10T21:07:43.606Z,13.30
2019-05-10T21:13:08.168Z,13.23
2019-05-10T21:18:30.325Z,13.02
2019-05-10T21:23:52.166Z,12.79
2019-05-10T21:29:13.895Z,12.77
2019-05-10T21:34:35.435Z,12.78
2019-05-10T21:39:57.656Z,12.86
2019-05-10T21:45:19.975Z,12.74
2019-05-10T21:50:42.115Z,12.70
2019-05-10T21:56:03.979Z,12.57
2019-05-10T22:01:26.022Z,12.51
2019-05-10T22:06:47.942Z,12.40
2019-05-10T22:12:10.287Z,12.27
2019-05-10T22:17:32.082Z,12.26
2019-05-10T22:22:53.704Z,12.20
2019-05-10T22:28:16.215Z,12.15
2019-05-10T22:33:37.866Z,12.26
2019-05-10T22:39:07.131Z,12.25
2019-05-10T22:44:23.369Z,12.14
2019-05-10T22:49:45.399Z,11.98
2019-05-10T22:55:07.754Z,11.59
2019-05-10T23:00:29.622Z,11.41
2019-05-10T23:05:51.467Z,11.37
2019-05-10T23:11:13.341Z,11.36
2019-05-10T23:16:34.833Z,11.29
2019-05-10T23:21:56.646Z,11.07
2019-05-10T23:27:18.572Z,11.03
2019-05-10T23:32:40.189Z,11.17
2019-05-10T23:38:02.010Z,11.32
2019-05-10T23:43:23.669Z,11.77
2019-05-10T23:48:45.620Z,12.04
2019-05-10T23:54:07.416Z,11.94
2019-05-10T23:59:29.082Z,12.08
